createdAt,value
2019-05-03T00:00:57.134Z,77.58
2019-05-03T00:03:22.925Z,77.78
2019-05-03T00:05:50.105Z,78.06
2019-05-03T00:08:15.995Z,78.11
2019-05-03T00:10:42.543Z,78.15
2019-05-03T00:13:08.577Z,78.18
2019-05-03T00:15:36.357Z,78.42
2019-05-03T00:18:02.460Z,78.31
2019-05-03T00:20:28.244Z,78.05
2019-05-03T00:22:54.016Z,77.75
2019-05-03T00:25:21.970Z,78.01
2019-05-03T00:27:47.492Z,77.93
2019-05-03T00:30:13.286Z,78.15
2019-05-03T00:32:39.066Z,77.84
2019-05-03T00:35:15.812Z,77.91
2019-05-03T00:37:46.010Z,77.82
2019-05-03T00:40:13.803Z,77.64
2019-05-03T00:42:39.588Z,77.85
2019-05-03T00:45:06.097Z,77.46
2019-05-03T00:47:32.893Z,77.56
2019-05-03T00:49:58.786Z,77.34
2019-05-03T00:52:24.578Z,77.17
2019-05-03T00:54:50.369Z,77.21
2019-05-03T00:57:16.153Z,77.17
2019-05-03T00:59:42.102Z,76.85
2019-05-03T01:02:07.923Z,77.10
2019-05-03T01:04:33.813Z,77.30
2019-05-03T01:06:59.683Z,77.27
2019-05-03T01:09:25.583Z,77.06
2019-05-03T01:11:52.462Z,77.12
2019-05-03T01:14:18.347Z,76.88
2019-05-03T01:16:44.139Z,77.34
2019-05-03T01:19:11.960Z,76.96
2019-05-03T01:21:37.636Z,76.89
2019-05-03T01:24:03.411Z,76.84
2019-05-03T01:26:29.210Z,77.26
2019-05-03T01:28:54.991Z,77.24
2019-05-03T01:31:22.673Z,77.24
2019-05-03T01:33:48.466Z,77.38
2019-05-03T01:36:14.354Z,77.53
2019-05-03T01:38:42.203Z,77.72
2019-05-03T01:41:07.817Z,77.81
2019-05-03T01:43:33.602Z,78.06
2019-05-03T01:45:59.391Z,78.16
2019-05-03T01:48:32.888Z,78.37
2019-05-03T01:51:02.752Z,78.24
2019-05-03T01:53:32.135Z,78.18
2019-05-03T01:55:57.866Z,78.26
2019-05-03T01:58:23.650Z,78.19
2019-05-03T02:00:54.861Z,78.49
2019-05-03T02:03:34.140Z,78.50
2019-05-03T02:05:59.938Z,78.89
2019-05-03T02:08:25.799Z,78.89
2019-05-03T02:10:51.862Z,79.09
2019-05-03T02:13:17.680Z,79.09
2019-05-03T02:15:43.460Z,78.83
2019-05-03T02:18:09.252Z,78.57
2019-05-03T02:20:35.026Z,78.64
2019-05-03T02:23:02.567Z,78.56
2019-05-03T02:25:28.500Z,78.47
2019-05-03T02:27:54.291Z,78.67
2019-05-03T02:30:20.064Z,78.80
2019-05-03T02:32:45.867Z,78.63
2019-05-03T02:35:13.961Z,78.67
2019-05-03T02:37:43.883Z,78.87
2019-05-03T02:40:09.521Z,78.84
2019-05-03T02:42:35.685Z,78.85
2019-05-03T02:45:01.942Z,78.48
2019-05-03T02:47:29.709Z,78.57
2019-05-03T02:49:57.432Z,78.38
2019-05-03T02:52:36.937Z,78.59
2019-05-03T02:55:06.117Z,78.64
2019-05-03T02:57:32.168Z,78.71
2019-05-03T02:59:57.947Z,78.99
2019-05-03T03:02:26.319Z,79.12
2019-05-03T03:04:51.522Z,78.87
2019-05-03T03:07:17.500Z,79.13
2019-05-03T03:09:45.295Z,79.23
2019-05-03T03:12:15.236Z,78.99
2019-05-03T03:14:45.526Z,79.01
2019-05-03T03:17:12.295Z,78.79
2019-05-03T03:19:38.194Z,78.84
2019-05-03T03:22:06.194Z,78.62
2019-05-03T03:24:32.765Z,78.03
2019-05-03T03:27:00.438Z,77.73
2019-05-03T03:29:26.474Z,77.69
2019-05-03T03:31:58.104Z,77.66
2019-05-03T03:37:01.014Z,77.03
2019-05-03T03:39:21.588Z,76.98
2019-05-03T03:44:15.255Z,77.34
2019-05-03T03:46:45.287Z,77.70
2019-05-03T03:49:10.715Z,77.62
2019-05-03T03:51:37.901Z,77.75
2019-05-03T03:54:06.031Z,77.76
2019-05-03T03:56:37.186Z,78.22
2019-05-03T03:59:01.067Z,78.05
2019-05-03T04:01:26.965Z,78.45
2019-05-03T04:03:52.734Z,78.19
2019-05-03T04:06:18.528Z,78.49
2019-05-03T04:08:45.355Z,78.10
2019-05-03T04:11:11.292Z,78.29
2019-05-03T04:13:38.480Z,78.22
2019-05-03T04:16:09.191Z,78.50
2019-05-03T04:18:52.124Z,78.53
2019-05-03T04:21:20.013Z,78.62
2019-05-03T04:23:45.980Z,78.32
2019-05-03T04:26:11.786Z,78.06
2019-05-03T04:28:37.855Z,78.07
2019-05-03T04:31:06.016Z,78.03
2019-05-03T04:33:31.321Z,78.12
2019-05-03T04:35:57.119Z,77.85
2019-05-03T04:38:25.600Z,78.17
2019-05-03T04:40:51.419Z,77.92
2019-05-03T04:43:17.212Z,77.87
2019-05-03T04:45:45.633Z,77.72
2019-05-03T04:48:11.480Z,77.04
2019-05-03T04:50:37.285Z,76.58
2019-05-03T04:53:05.621Z,76.39
2019-05-03T04:55:30.729Z,75.86
2019-05-03T04:57:56.526Z,75.24
2019-05-03T05:00:25.364Z,75.33
2019-05-03T05:02:49.966Z,75.06
2019-05-03T05:05:15.739Z,75.18
2019-05-03T05:07:41.527Z,74.95
2019-05-03T05:10:07.299Z,74.81
2019-05-03T05:12:35.413Z,74.47
2019-05-03T05:15:00.763Z,74.31
2019-05-03T05:17:31.209Z,73.55
2019-05-03T05:19:58.890Z,73.28
2019-05-03T05:22:26.585Z,73.19
2019-05-03T05:24:52.394Z,73.38
2019-05-03T05:27:25.895Z,72.88
2019-05-03T05:29:51.873Z,72.82
2019-05-03T05:32:17.675Z,72.61
2019-05-03T05:34:43.450Z,73.20
2019-05-03T05:37:09.235Z,71.89
2019-05-03T05:39:35.595Z,71.99
2019-05-03T05:42:01.498Z,71.77
2019-05-03T05:44:27.300Z,71.97
2019-05-03T05:47:00.672Z,71.83
2019-05-03T05:49:44.537Z,71.86
2019-05-03T05:52:10.301Z,71.49
2019-05-03T05:54:37.967Z,70.66
2019-05-03T05:57:25.485Z,69.57
2019-05-03T06:00:08.207Z,69.81
2019-05-03T06:02:35.901Z,69.17
2019-05-03T06:05:04.847Z,69.67
2019-05-03T06:07:44.385Z,69.87
2019-05-03T06:10:14.682Z,69.98
2019-05-03T06:12:47.768Z,69.99
2019-05-03T06:15:34.481Z,69.20
2019-05-03T06:18:02.240Z,68.89
2019-05-03T06:20:32.684Z,67.95
2019-05-03T06:23:00.909Z,67.86
2019-05-03T06:25:31.479Z,67.43
2019-05-03T06:27:57.752Z,66.41
2019-05-03T06:30:41.770Z,66.51
2019-05-03T06:33:07.552Z,66.51
2019-05-03T06:35:34.592Z,66.99
2019-05-03T06:38:00.423Z,66.73
2019-05-03T06:40:26.251Z,65.18
2019-05-03T06:42:54.899Z,65.71
2019-05-03T06:45:19.687Z,64.78
2019-05-03T06:47:49.746Z,64.38
2019-05-03T06:50:14.635Z,64.14
2019-05-03T06:52:40.430Z,63.16
2019-05-03T06:55:10.517Z,62.67
2019-05-03T06:57:40.164Z,63.46
2019-05-03T07:00:19.107Z,62.85
2019-05-03T07:02:55.576Z,62.07
2019-05-03T07:05:25.031Z,61.98
2019-05-03T07:08:09.042Z,61.77
2019-05-03T07:10:39.576Z,61.77
2019-05-03T07:13:08.613Z,61.37
2019-05-03T07:15:34.978Z,62.25
2019-05-03T07:18:00.774Z,61.36
2019-05-03T07:20:26.663Z,61.45
2019-05-03T07:22:55.537Z,61.82
2019-05-03T07:25:21.535Z,60.04
2019-05-03T07:27:47.324Z,60.67
2019-05-03T07:30:13.124Z,60.22
2019-05-03T07:32:40.800Z,59.11
2019-05-03T07:35:06.807Z,57.07
2019-05-03T07:37:34.727Z,58.76
2019-05-03T07:40:00.283Z,58.76
2019-05-03T07:42:26.058Z,60.32
2019-05-03T07:44:51.864Z,59.71
2019-05-03T07:47:17.643Z,60.72
2019-05-03T07:49:44.739Z,60.91
2019-05-03T07:52:11.878Z,61.29
2019-05-03T07:54:37.724Z,60.24
2019-05-03T07:57:05.416Z,60.24
2019-05-03T07:59:31.197Z,58.89
2019-05-03T08:01:57.995Z,56.62
2019-05-03T08:04:25.546Z,54.99
2019-05-03T08:06:51.492Z,53.76
2019-05-03T08:09:17.272Z,53.55
2019-05-03T08:11:44.429Z,53.96
2019-05-03T08:14:10.245Z,54.91
2019-05-03T08:16:36.032Z,53.84
2019-05-03T08:19:01.914Z,52.66
2019-05-03T08:21:27.709Z,52.74
2019-05-03T08:23:55.474Z,49.23
2019-05-03T08:26:21.200Z,49.66
2019-05-03T08:28:46.975Z,49.32
2019-05-03T08:31:15.109Z,49.40
2019-05-03T08:33:48.364Z,51.37
2019-05-03T08:36:15.649Z,48.48
2019-05-03T08:38:41.535Z,47.87
2019-05-03T08:41:09.214Z,49.31
2019-05-03T08:43:35.799Z,49.12
2019-05-03T08:46:01.689Z,48.89
2019-05-03T08:48:27.470Z,48.58
2019-05-03T08:50:55.286Z,47.24
2019-05-03T08:53:20.930Z,49.17
2019-05-03T08:55:46.718Z,50.25
2019-05-03T08:58:12.512Z,50.97
2019-05-03T09:00:40.183Z,54.00
2019-05-03T09:03:05.982Z,55.08
2019-05-03T09:05:31.771Z,56.07
2019-05-03T09:07:57.572Z,55.31
2019-05-03T09:10:25.239Z,54.50
2019-05-03T09:13:10.634Z,54.70
2019-05-03T09:15:37.908Z,51.74
2019-05-03T09:18:04.832Z,51.56
2019-05-03T09:20:32.371Z,52.30
2019-05-03T09:22:58.255Z,59.84
2019-05-03T09:25:24.777Z,61.00
2019-05-03T09:27:50.640Z,57.32
2019-05-03T09:30:16.984Z,56.62
2019-05-03T09:32:44.799Z,55.50
2019-05-03T09:35:12.360Z,51.91
2019-05-03T09:37:38.137Z,49.49
2019-05-03T09:40:04.728Z,52.00
2019-05-03T09:42:30.514Z,62.67
2019-05-03T09:44:56.316Z,69.79
2019-05-03T09:47:22.086Z,71.10
2019-05-03T09:49:47.866Z,72.20
2019-05-03T09:52:16.113Z,72.33
2019-05-03T09:54:45.266Z,69.83
2019-05-03T09:57:11.013Z,64.76
2019-05-03T09:59:36.812Z,62.25
2019-05-03T10:02:04.750Z,62.36
2019-05-03T10:04:30.383Z,61.22
2019-05-03T10:06:56.157Z,56.97
2019-05-03T10:09:21.944Z,55.48
2019-05-03T10:11:47.777Z,53.09
2019-05-03T10:14:15.448Z,55.24
2019-05-03T10:16:49.044Z,52.90
2019-05-03T10:19:16.248Z,52.90
2019-05-03T10:21:44.879Z,55.70
2019-05-03T10:24:10.719Z,51.19
2019-05-03T10:26:36.521Z,51.19
2019-05-03T10:29:02.386Z,50.52
2019-05-03T10:31:30.147Z,47.79
2019-05-03T10:34:05.567Z,48.77
2019-05-03T10:36:30.854Z,48.35
2019-05-03T10:38:56.628Z,46.69
2019-05-03T10:41:22.419Z,48.10
2019-05-03T10:43:48.210Z,47.13
2019-05-03T10:46:16.006Z,50.40
2019-05-03T10:48:41.682Z,57.20
2019-05-03T10:51:07.486Z,59.51
2019-05-03T10:53:35.172Z,59.26
2019-05-03T10:56:22.709Z,59.74
2019-05-03T10:58:48.483Z,59.34
2019-05-03T11:01:16.186Z,59.54
2019-05-03T11:03:41.976Z,59.20
2019-05-03T11:06:07.773Z,58.30
2019-05-03T11:08:33.556Z,57.27
2019-05-03T11:10:59.374Z,57.72
2019-05-03T11:13:26.432Z,57.69
2019-05-03T11:15:52.364Z,55.57
2019-05-03T11:18:18.155Z,54.68
2019-05-03T11:20:45.271Z,55.07
2019-05-03T11:23:11.233Z,54.26
2019-05-03T11:25:37.015Z,54.32
2019-05-03T11:28:05.912Z,53.92
2019-05-03T11:30:31.699Z,53.20
2019-05-03T11:32:59.397Z,52.14
2019-05-03T11:35:34.970Z,50.97
2019-05-03T11:38:08.268Z,49.71
2019-05-03T11:40:34.587Z,49.49
2019-05-03T11:43:02.150Z,51.66
2019-05-03T11:45:27.939Z,54.05
2019-05-03T11:47:55.090Z,54.05
2019-05-03T11:50:20.922Z,53.07
2019-05-03T11:52:47.324Z,51.41
2019-05-03T11:55:15.740Z,50.53
2019-05-03T11:57:40.879Z,48.35
2019-05-03T12:00:07.858Z,49.97
2019-05-03T12:02:35.553Z,48.49
2019-05-03T12:05:11.873Z,46.73
2019-05-03T12:07:39.868Z,48.20
2019-05-03T12:10:16.169Z,49.85
2019-05-03T12:12:35.409Z,52.23
2019-05-03T12:15:01.170Z,52.00
2019-05-03T12:17:52.928Z,52.23
2019-05-03T12:20:13.132Z,52.99
2019-05-03T12:22:39.748Z,51.30
2019-05-03T12:25:10.023Z,49.67
2019-05-03T12:27:34.975Z,48.41
2019-05-03T12:30:00.758Z,51.65
2019-05-03T12:32:26.536Z,54.35
2019-05-03T12:34:52.336Z,54.99
2019-05-03T12:37:18.112Z,61.48
2019-05-03T12:39:43.913Z,65.04
2019-05-03T12:42:09.698Z,65.98
2019-05-03T12:44:35.649Z,64.24
2019-05-03T12:47:02.672Z,64.40
2019-05-03T12:49:28.687Z,62.91
2019-05-03T12:51:55.822Z,62.25
2019-05-03T12:54:21.674Z,61.30
2019-05-03T12:56:47.433Z,58.95
2019-05-03T12:59:23.671Z,60.23
2019-05-03T13:01:51.382Z,60.17
2019-05-03T13:04:21.861Z,59.48
2019-05-03T13:06:49.543Z,57.52
2019-05-03T13:09:15.985Z,54.95
2019-05-03T13:11:52.924Z,53.76
2019-05-03T13:14:11.454Z,48.69
2019-05-03T13:16:37.228Z,49.58
2019-05-03T13:19:03.001Z,50.07
2019-05-03T13:21:28.782Z,48.69
2019-05-03T13:23:54.912Z,48.48
2019-05-03T13:26:20.762Z,48.43
2019-05-03T13:28:46.537Z,48.30
2019-05-03T13:31:12.330Z,48.59
2019-05-03T13:33:38.103Z,49.18
2019-05-03T13:36:03.994Z,50.09
2019-05-03T13:38:29.766Z,51.13
2019-05-03T13:40:55.557Z,50.22
2019-05-03T13:43:21.332Z,50.82
2019-05-03T13:45:47.142Z,51.63
2019-05-03T13:48:15.267Z,49.48
2019-05-03T13:50:40.648Z,49.38
2019-05-03T13:53:06.423Z,50.74
2019-05-03T13:55:32.210Z,49.40
2019-05-03T13:57:57.991Z,48.59
2019-05-03T14:00:24.699Z,51.40
2019-05-03T14:02:50.579Z,51.61
2019-05-03T14:05:16.362Z,49.24
2019-05-03T14:07:42.159Z,52.41
2019-05-03T14:10:08.036Z,54.54
2019-05-03T14:12:35.089Z,54.05
2019-05-03T14:15:01.011Z,51.63
2019-05-03T14:17:28.207Z,50.65
2019-05-03T14:20:07.841Z,51.08
2019-05-03T14:22:35.846Z,52.53
2019-05-03T14:25:01.658Z,52.13
2019-05-03T14:27:27.444Z,51.35
2019-05-03T14:29:54.893Z,52.02
2019-05-03T14:32:28.364Z,54.83
2019-05-03T14:34:48.417Z,63.15
2019-05-03T14:37:14.200Z,68.99
2019-05-03T14:39:39.971Z,71.88
2019-05-03T14:42:05.767Z,73.27
2019-05-03T14:44:31.569Z,71.54
2019-05-03T14:46:59.158Z,72.97
2019-05-03T14:49:25.423Z,71.56
2019-05-03T14:51:51.350Z,70.84
2019-05-03T14:54:17.434Z,70.69
2019-05-03T14:56:53.943Z,69.31
2019-05-03T14:59:37.979Z,69.65
2019-05-03T15:02:05.681Z,70.88
2019-05-03T15:04:31.559Z,75.32
2019-05-03T15:06:57.961Z,77.06
2019-05-03T15:09:25.150Z,76.80
2019-05-03T15:11:51.007Z,74.16
2019-05-03T15:14:16.803Z,74.71
2019-05-03T15:16:42.577Z,73.75
2019-05-03T15:19:08.372Z,72.73
2019-05-03T15:21:34.636Z,71.22
2019-05-03T15:24:00.447Z,71.05
2019-05-03T15:26:26.225Z,70.79
2019-05-03T15:28:52.051Z,69.89
2019-05-03T15:31:17.828Z,68.72
2019-05-03T15:33:44.936Z,68.96
2019-05-03T15:36:11.083Z,67.29
2019-05-03T15:38:36.976Z,67.16
2019-05-03T15:41:02.763Z,67.24
2019-05-03T15:43:47.614Z,67.43
2019-05-03T15:46:15.298Z,69.19
2019-05-03T15:48:43.001Z,69.19
2019-05-03T15:51:08.791Z,64.88
2019-05-03T15:53:35.317Z,62.52
2019-05-03T15:56:01.261Z,61.42
2019-05-03T15:58:27.052Z,60.45
2019-05-03T16:00:55.163Z,60.96
2019-05-03T16:03:20.544Z,61.12
2019-05-03T16:05:46.339Z,58.52
2019-05-03T16:08:12.127Z,58.72
2019-05-03T16:10:37.921Z,57.20
2019-05-03T16:13:04.833Z,58.39
2019-05-03T16:15:30.717Z,55.94
2019-05-03T16:17:56.500Z,55.94
2019-05-03T16:20:22.296Z,54.36
2019-05-03T16:22:48.070Z,54.10
2019-05-03T16:25:14.303Z,54.31
2019-05-03T16:27:42.051Z,54.59
2019-05-03T16:30:26.524Z,55.01
2019-05-03T16:32:52.316Z,55.75
2019-05-03T16:35:18.112Z,55.75
2019-05-03T16:37:45.215Z,56.91
2019-05-03T16:40:11.083Z,65.64
2019-05-03T16:42:36.862Z,65.64
2019-05-03T16:45:05.452Z,69.37
2019-05-03T16:47:31.202Z,71.50
2019-05-03T16:49:56.999Z,71.59
2019-05-03T16:52:22.783Z,71.81
2019-05-03T16:54:48.563Z,72.66
2019-05-03T16:57:17.511Z,73.41
2019-05-03T16:59:44.376Z,73.58
2019-05-03T17:02:10.144Z,74.60
2019-05-03T17:04:40.591Z,75.43
2019-05-03T17:07:17.116Z,76.08
2019-05-03T17:09:44.796Z,75.26
2019-05-03T17:12:12.484Z,74.71
2019-05-03T17:14:38.272Z,74.82
2019-05-03T17:17:04.693Z,74.28
2019-05-03T17:19:31.860Z,74.28
2019-05-03T17:21:58.331Z,73.76
2019-05-03T17:24:24.879Z,74.15
2019-05-03T17:26:51.841Z,74.27
2019-05-03T17:29:18.026Z,73.92
2019-05-03T17:31:44.464Z,74.62
2019-05-03T17:34:10.825Z,74.79
2019-05-03T17:36:36.658Z,74.24
2019-05-03T17:39:05.517Z,74.94
2019-05-03T17:41:39.345Z,75.33
2019-05-03T17:44:07.041Z,74.93
2019-05-03T17:46:34.763Z,76.31
2019-05-03T17:49:00.608Z,78.36
2019-05-03T17:51:39.972Z,78.41
2019-05-03T17:54:16.284Z,79.29
2019-05-03T17:57:01.909Z,79.44
2019-05-03T17:59:29.579Z,79.04
2019-05-03T18:02:15.332Z,78.81
2019-05-03T18:04:59.336Z,78.66
2019-05-03T18:07:27.037Z,78.66
2019-05-03T18:09:55.367Z,79.04
2019-05-03T18:12:21.208Z,78.24
2019-05-03T18:14:47.008Z,78.70
2019-05-03T18:17:14.624Z,78.24
2019-05-03T18:19:40.481Z,78.11
2019-05-03T18:22:06.372Z,77.96
2019-05-03T18:24:32.145Z,78.17
2019-05-03T18:26:57.962Z,77.45
2019-05-03T18:29:25.269Z,77.66
2019-05-03T18:31:51.132Z,77.65
2019-05-03T18:34:19.915Z,78.07
2019-05-03T18:36:45.055Z,78.27
2019-05-03T18:39:11.387Z,78.68
2019-05-03T18:41:37.173Z,78.65
2019-05-03T18:44:16.497Z,78.78
2019-05-03T18:46:44.575Z,78.98
2019-05-03T18:49:10.471Z,79.04
2019-05-03T18:51:36.343Z,79.19
2019-05-03T18:54:04.649Z,80.12
2019-05-03T18:56:29.812Z,79.71
2019-05-03T18:58:55.605Z,79.86
2019-05-03T19:01:21.418Z,79.65
2019-05-03T19:03:49.122Z,79.93
2019-05-03T19:06:15.094Z,79.91
2019-05-03T19:08:44.555Z,80.11
2019-05-03T19:11:12.488Z,80.39
2019-05-03T19:13:41.577Z,81.14
2019-05-03T19:16:09.367Z,81.03
2019-05-03T19:18:37.061Z,81.71
2019-05-03T19:21:04.614Z,81.60
2019-05-03T19:23:30.473Z,80.67
2019-05-03T19:25:56.285Z,79.94
2019-05-03T19:28:22.073Z,79.78
2019-05-03T19:30:48.062Z,78.91
2019-05-03T19:33:13.861Z,79.14
2019-05-03T19:35:39.645Z,79.33
2019-05-03T19:38:05.417Z,79.17
2019-05-03T19:40:31.216Z,79.58
2019-05-03T19:42:57.000Z,80.14
2019-05-03T19:45:24.760Z,80.26
2019-05-03T19:47:50.487Z,79.93
2019-05-03T19:50:16.274Z,80.02
2019-05-03T19:52:55.612Z,79.83
2019-05-03T19:55:21.403Z,79.35
2019-05-03T19:57:47.507Z,78.63
2019-05-03T20:00:14.922Z,77.81
2019-05-03T20:02:45.518Z,78.98
2019-05-03T20:05:25.343Z,78.56
2019-05-03T20:08:07.838Z,79.20
2019-05-03T20:10:35.090Z,79.12
2019-05-03T20:13:01.117Z,79.79
2019-05-03T20:15:27.034Z,80.01
2019-05-03T20:17:59.259Z,80.19
2019-05-03T20:20:20.511Z,80.04
2019-05-03T20:22:47.751Z,80.20
2019-05-03T20:25:15.186Z,81.05
2019-05-03T20:27:41.055Z,80.23
2019-05-03T20:30:06.945Z,80.26
2019-05-03T20:32:34.503Z,80.20
2019-05-03T20:35:11.168Z,80.28
2019-05-03T20:37:28.100Z,80.54
2019-05-03T20:39:54.496Z,80.67
2019-05-03T20:42:28.362Z,80.95
2019-05-03T20:44:56.074Z,81.43
2019-05-03T20:47:29.667Z,81.72
2019-05-03T20:50:15.298Z,81.66
2019-05-03T20:52:41.586Z,81.82
2019-05-03T20:55:07.359Z,81.61
2019-05-03T20:57:35.196Z,82.48
2019-05-03T21:00:01.032Z,82.58
2019-05-03T21:02:26.847Z,82.50
2019-05-03T21:04:52.645Z,82.50
2019-05-03T21:07:18.501Z,82.23
2019-05-03T21:09:45.573Z,82.59
2019-05-03T21:12:11.518Z,82.73
2019-05-03T21:14:37.296Z,82.59
2019-05-03T21:17:04.994Z,82.77
2019-05-03T21:19:41.195Z,82.50
2019-05-03T21:22:08.881Z,82.44
2019-05-03T21:24:36.554Z,82.22
2019-05-03T21:27:02.372Z,82.96
2019-05-03T21:29:28.121Z,82.78
2019-05-03T21:31:55.227Z,82.88
2019-05-03T21:34:21.097Z,82.85
2019-05-03T21:36:46.895Z,82.73
2019-05-03T21:39:14.517Z,82.72
2019-05-03T21:41:40.367Z,83.42
2019-05-03T21:44:06.229Z,83.73
2019-05-03T21:46:48.530Z,83.62
2019-05-03T21:49:19.122Z,83.53
2019-05-03T21:51:45.117Z,83.48
2019-05-03T21:54:12.423Z,83.29
2019-05-03T21:56:38.271Z,83.54
2019-05-03T21:59:05.565Z,83.57
2019-05-03T22:01:34.975Z,83.40
2019-05-03T22:04:00.283Z,83.80
2019-05-03T22:06:26.067Z,83.08
2019-05-03T22:08:51.859Z,83.47
2019-05-03T22:11:17.740Z,83.58
2019-05-03T22:13:46.226Z,83.48
2019-05-03T22:16:31.083Z,83.91
2019-05-03T22:19:00.274Z,83.73
2019-05-03T22:21:28.067Z,83.86
2019-05-03T22:24:14.837Z,83.75
2019-05-03T22:26:54.159Z,83.80
2019-05-03T22:29:19.951Z,83.70
2019-05-03T22:31:46.154Z,84.00
2019-05-03T22:34:11.954Z,84.38
2019-05-03T22:36:37.733Z,84.17
2019-05-03T22:39:05.319Z,83.90
2019-05-03T22:41:31.108Z,84.08
2019-05-03T22:43:56.923Z,83.77
2019-05-03T22:46:22.697Z,82.96
2019-05-03T22:48:48.735Z,81.38
2019-05-03T22:51:15.123Z,81.38
2019-05-03T22:53:41.306Z,80.72
2019-05-03T22:56:07.089Z,80.54
2019-05-03T22:58:32.880Z,80.10
2019-05-03T23:00:58.655Z,79.71
2019-05-03T23:03:25.036Z,80.15
2019-05-03T23:05:51.026Z,80.15
2019-05-03T23:08:16.804Z,80.73
2019-05-03T23:10:42.890Z,81.36
2019-05-03T23:13:09.263Z,81.73
2019-05-03T23:15:35.059Z,81.66
2019-05-03T23:18:01.850Z,82.54
2019-05-03T23:20:46.479Z,83.16
2019-05-03T23:23:19.688Z,83.13
2019-05-03T23:25:45.489Z,81.19
2019-05-03T23:28:12.215Z,78.02
2019-05-03T23:30:39.223Z,78.02
2019-05-03T23:33:05.012Z,79.33
2019-05-03T23:35:30.807Z,81.42
2019-05-03T23:37:56.588Z,84.06
2019-05-03T23:40:22.975Z,85.12
2019-05-03T23:42:48.923Z,85.56
2019-05-03T23:45:16.048Z,85.82
2019-05-03T23:47:45.126Z,86.41
2019-05-03T23:50:13.603Z,86.47
2019-05-03T23:52:39.384Z,86.33
2019-05-03T23:55:19.615Z,86.34
2019-05-03T23:57:45.543Z,86.28
